sensor_id;sensor_type;location;lat;lon;timestamp;P1;durP1;ratioP1;P2;durP2;ratioP2
32172;SDS011;18679;45.190;5.722;2023-02-18T00:01:37;20.65;;;6.90;;
32172;SDS011;18679;45.190;5.722;2023-02-18T00:04:38;18.98;;;6.95;;
32172;SDS011;18679;45.190;5.722;2023-02-18T00:07:39;25.95;;;7.07;;
32172;SDS011;18679;45.190;5.722;2023-02-18T00:10:40;13.70;;;6.07;;
32172;SDS011;18679;45.190;5.722;2023-02-18T00:13:42;21.85;;;6.28;;
32172;SDS011;18679;45.190;5.722;2023-02-18T00:16:43;15.52;;;7.00;;
32172;SDS011;18679;45.190;5.722;2023-02-18T00:19:45;17.95;;;7.22;;
32172;SDS011;18679;45.190;5.722;2023-02-18T00:22:46;17.52;;;6.03;;
32172;SDS011;18679;45.190;5.722;2023-02-18T00:25:47;25.90;;;6.75;;
32172;SDS011;18679;45.190;5.722;2023-02-18T00:28:48;19.95;;;6.25;;
32172;SDS011;18679;45.190;5.722;2023-02-18T00:31:51;17.98;;;8.15;;
32172;SDS011;18679;45.190;5.722;2023-02-18T00:34:52;14.77;;;6.90;;
32172;SDS011;18679;45.190;5.722;2023-02-18T00:37:53;21.77;;;6.78;;
32172;SDS011;18679;45.190;5.722;2023-02-18T00:40:54;28.17;;;7.65;;
32172;SDS011;18679;45.190;5.722;2023-02-18T00:43:55;20.00;;;7.90;;
32172;SDS011;18679;45.190;5.722;2023-02-18T00:46:56;21.63;;;7.25;;
32172;SDS011;18679;45.190;5.722;2023-02-18T00:49:57;21.45;;;6.30;;
32172;SDS011;18679;45.190;5.722;2023-02-18T00:52:58;14.27;;;6.70;;
32172;SDS011;18679;45.190;5.722;2023-02-18T00:55:59;11.32;;;5.88;;
32172;SDS011;18679;45.190;5.722;2023-02-18T00:59:00;13.30;;;6.45;;
32172;SDS011;18679;45.190;5.722;2023-02-18T01:02:01;14.98;;;6.10;;
32172;SDS011;18679;45.190;5.722;2023-02-18T01:05:02;14.98;;;5.85;;
32172;SDS011;18679;45.190;5.722;2023-02-18T01:08:04;15.35;;;5.82;;
32172;SDS011;18679;45.190;5.722;2023-02-18T01:11:06;13.70;;;5.60;;
32172;SDS011;18679;45.190;5.722;2023-02-18T01:14:09;12.50;;;5.45;;
32172;SDS011;18679;45.190;5.722;2023-02-18T01:17:10;16.25;;;5.35;;
32172;SDS011;18679;45.190;5.722;2023-02-18T01:20:14;14.75;;;6.22;;
32172;SDS011;18679;45.190;5.722;2023-02-18T01:23:15;17.48;;;6.45;;
32172;SDS011;18679;45.190;5.722;2023-02-18T01:26:16;14.98;;;5.95;;
32172;SDS011;18679;45.190;5.722;2023-02-18T01:29:17;12.20;;;6.30;;
32172;SDS011;18679;45.190;5.722;2023-02-18T01:32:18;13.73;;;5.53;;
32172;SDS011;18679;45.190;5.722;2023-02-18T01:35:19;17.30;;;6.13;;
32172;SDS011;18679;45.190;5.722;2023-02-18T01:38:20;13.25;;;6.00;;
32172;SDS011;18679;45.190;5.722;2023-02-18T01:41:21;15.25;;;6.13;;
32172;SDS011;18679;45.190;5.722;2023-02-18T01:44:24;14.30;;;6.40;;
32172;SDS011;18679;45.190;5.722;2023-02-18T01:47:27;24.80;;;6.85;;
32172;SDS011;18679;45.190;5.722;2023-02-18T01:50:28;13.68;;;6.32;;
32172;SDS011;18679;45.190;5.722;2023-02-18T01:57:17;14.77;;;6.28;;
32172;SDS011;18679;45.190;5.722;2023-02-18T02:00:31;16.42;;;6.25;;
32172;SDS011;18679;45.190;5.722;2023-02-18T02:03:32;19.50;;;6.70;;
32172;SDS011;18679;45.190;5.722;2023-02-18T02:06:33;17.30;;;6.05;;
32172;SDS011;18679;45.190;5.722;2023-02-18T02:09:35;19.33;;;6.80;;
32172;SDS011;18679;45.190;5.722;2023-02-18T02:19:14;20.27;;;7.15;;
32172;SDS011;18679;45.190;5.722;2023-02-18T02:29:38;20.10;;;6.63;;
32172;SDS011;18679;45.190;5.722;2023-02-18T02:36:42;12.88;;;5.45;;
32172;SDS011;18679;45.190;5.722;2023-02-18T02:46:30;13.38;;;6.38;;
32172;SDS011;18679;45.190;5.722;2023-02-18T02:49:48;8.57;;;5.03;;
32172;SDS011;18679;45.190;5.722;2023-02-18T02:52:58;16.35;;;6.10;;
32172;SDS011;18679;45.190;5.722;2023-02-18T02:56:05;13.33;;;5.10;;
32172;SDS011;18679;45.190;5.722;2023-02-18T02:59:10;10.38;;;5.60;;
32172;SDS011;18679;45.190;5.722;2023-02-18T03:08:58;14.05;;;5.97;;
32172;SDS011;18679;45.190;5.722;2023-02-18T03:24:59;12.10;;;6.32;;
32172;SDS011;18679;45.190;5.722;2023-02-18T03:28:06;11.68;;;5.57;;
32172;SDS011;18679;45.190;5.722;2023-02-18T03:31:11;9.85;;;5.32;;
32172;SDS011;18679;45.190;5.722;2023-02-18T03:34:19;11.77;;;5.18;;
32172;SDS011;18679;45.190;5.722;2023-02-18T03:37:26;19.20;;;5.90;;
32172;SDS011;18679;45.190;5.722;2023-02-18T03:40:29;11.15;;;5.63;;
32172;SDS011;18679;45.190;5.722;2023-02-18T03:43:32;13.27;;;5.93;;
32172;SDS011;18679;45.190;5.722;2023-02-18T03:46:34;11.73;;;5.68;;
32172;SDS011;18679;45.190;5.722;2023-02-18T03:49:37;12.15;;;6.07;;
32172;SDS011;18679;45.190;5.722;2023-02-18T03:52:38;16.33;;;5.75;;
32172;SDS011;18679;45.190;5.722;2023-02-18T03:55:39;13.98;;;5.68;;
32172;SDS011;18679;45.190;5.722;2023-02-18T03:58:41;16.45;;;5.85;;
32172;SDS011;18679;45.190;5.722;2023-02-18T04:01:43;19.42;;;5.10;;
32172;SDS011;18679;45.190;5.722;2023-02-18T04:04:44;19.90;;;6.00;;
32172;SDS011;18679;45.190;5.722;2023-02-18T04:07:45;14.55;;;6.32;;
32172;SDS011;18679;45.190;5.722;2023-02-18T04:10:46;12.93;;;5.75;;
32172;SDS011;18679;45.190;5.722;2023-02-18T04:13:47;13.50;;;5.60;;
32172;SDS011;18679;45.190;5.722;2023-02-18T04:16:48;15.38;;;6.30;;
32172;SDS011;18679;45.190;5.722;2023-02-18T04:19:49;16.45;;;5.60;;
32172;SDS011;18679;45.190;5.722;2023-02-18T04:22:50;16.67;;;5.80;;
32172;SDS011;18679;45.190;5.722;2023-02-18T04:25:51;21.33;;;6.20;;
32172;SDS011;18679;45.190;5.722;2023-02-18T04:28:52;13.27;;;5.63;;
32172;SDS011;18679;45.190;5.722;2023-02-18T04:31:53;14.32;;;6.07;;
32172;SDS011;18679;45.190;5.722;2023-02-18T04:34:54;17.98;;;7.57;;
32172;SDS011;18679;45.190;5.722;2023-02-18T04:41:52;13.60;;;5.68;;
32172;SDS011;18679;45.190;5.722;2023-02-18T04:44:53;13.80;;;5.75;;
32172;SDS011;18679;45.190;5.722;2023-02-18T04:47:54;16.67;;;7.10;;
32172;SDS011;18679;45.190;5.722;2023-02-18T04:50:55;13.82;;;6.53;;
32172;SDS011;18679;45.190;5.722;2023-02-18T04:53:56;17.33;;;6.07;;
32172;SDS011;18679;45.190;5.722;2023-02-18T04:56:57;17.60;;;6.55;;
32172;SDS011;18679;45.190;5.722;2023-02-18T04:59:58;16.95;;;6.43;;
32172;SDS011;18679;45.190;5.722;2023-02-18T05:02:59;14.15;;;5.50;;
32172;SDS011;18679;45.190;5.722;2023-02-18T05:06:00;13.88;;;6.50;;
32172;SDS011;18679;45.190;5.722;2023-02-18T05:09:02;11.88;;;6.00;;
32172;SDS011;18679;45.190;5.722;2023-02-18T05:12:03;13.77;;;5.32;;
32172;SDS011;18679;45.190;5.722;2023-02-18T05:15:05;11.18;;;4.93;;
32172;SDS011;18679;45.190;5.722;2023-02-18T05:18:07;10.05;;;5.05;;
32172;SDS011;18679;45.190;5.722;2023-02-18T05:21:07;18.58;;;7.20;;
32172;SDS011;18679;45.190;5.722;2023-02-18T05:24:08;11.10;;;5.50;;
32172;SDS011;18679;45.190;5.722;2023-02-18T05:27:09;17.30;;;6.25;;
32172;SDS011;18679;45.190;5.722;2023-02-18T05:30:10;9.73;;;5.57;;
32172;SDS011;18679;45.190;5.722;2023-02-18T05:33:12;13.27;;;6.22;;
32172;SDS011;18679;45.190;5.722;2023-02-18T05:36:13;14.05;;;5.88;;
32172;SDS011;18679;45.190;5.722;2023-02-18T05:39:14;19.70;;;6.22;;
32172;SDS011;18679;45.190;5.722;2023-02-18T05:42:15;15.68;;;6.47;;
32172;SDS011;18679;45.190;5.722;2023-02-18T05:45:16;13.00;;;6.00;;
32172;SDS011;18679;45.190;5.722;2023-02-18T05:48:17;17.05;;;6.22;;
32172;SDS011;18679;45.190;5.722;2023-02-18T05:51:18;19.80;;;6.90;;
32172;SDS011;18679;45.190;5.722;2023-02-18T05:54:19;16.42;;;7.03;;
32172;SDS011;18679;45.190;5.722;2023-02-18T05:57:20;13.65;;;6.18;;
32172;SDS011;18679;45.190;5.722;2023-02-18T06:00:22;20.77;;;6.63;;
32172;SDS011;18679;45.190;5.722;2023-02-18T06:03:23;12.38;;;6.20;;
32172;SDS011;18679;45.190;5.722;2023-02-18T06:06:24;15.00;;;6.55;;
32172;SDS011;18679;45.190;5.722;2023-02-18T06:09:25;20.88;;;7.68;;
32172;SDS011;18679;45.190;5.722;2023-02-18T06:12:26;10.05;;;6.13;;
32172;SDS011;18679;45.190;5.722;2023-02-18T06:15:27;14.93;;;5.78;;
32172;SDS011;18679;45.190;5.722;2023-02-18T06:18:28;17.90;;;7.07;;
32172;SDS011;18679;45.190;5.722;2023-02-18T06:21:29;19.30;;;7.22;;
32172;SDS011;18679;45.190;5.722;2023-02-18T06:24:31;22.38;;;7.10;;
32172;SDS011;18679;45.190;5.722;2023-02-18T06:27:32;15.57;;;6.63;;
32172;SDS011;18679;45.190;5.722;2023-02-18T06:30:33;15.35;;;6.03;;
32172;SDS011;18679;45.190;5.722;2023-02-18T06:33:34;13.60;;;7.35;;
32172;SDS011;18679;45.190;5.722;2023-02-18T06:36:35;17.00;;;7.05;;
32172;SDS011;18679;45.190;5.722;2023-02-18T06:39:37;18.83;;;7.05;;
32172;SDS011;18679;45.190;5.722;2023-02-18T06:42:38;13.68;;;6.05;;
32172;SDS011;18679;45.190;5.722;2023-02-18T06:45:39;14.98;;;7.05;;
32172;SDS011;18679;45.190;5.722;2023-02-18T06:48:40;17.05;;;7.00;;
32172;SDS011;18679;45.190;5.722;2023-02-18T06:51:41;18.02;;;6.55;;
32172;SDS011;18679;45.190;5.722;2023-02-18T06:54:42;15.00;;;6.78;;
32172;SDS011;18679;45.190;5.722;2023-02-18T06:57:43;17.58;;;7.18;;
32172;SDS011;18679;45.190;5.722;2023-02-18T07:00:44;15.27;;;6.22;;
32172;SDS011;18679;45.190;5.722;2023-02-18T07:03:45;12.98;;;6.68;;
32172;SDS011;18679;45.190;5.722;2023-02-18T07:06:46;15.57;;;6.40;;
32172;SDS011;18679;45.190;5.722;2023-02-18T07:09:49;14.15;;;6.57;;
32172;SDS011;18679;45.190;5.722;2023-02-18T07:12:50;15.02;;;5.88;;
32172;SDS011;18679;45.190;5.722;2023-02-18T07:15:51;15.57;;;5.60;;
32172;SDS011;18679;45.190;5.722;2023-02-18T07:18:52;17.42;;;6.78;;
32172;SDS011;18679;45.190;5.722;2023-02-18T07:21:54;21.20;;;7.00;;
32172;SDS011;18679;45.190;5.722;2023-02-18T07:24:57;14.55;;;6.10;;
32172;SDS011;18679;45.190;5.722;2023-02-18T07:27:58;13.45;;;6.50;;
32172;SDS011;18679;45.190;5.722;2023-02-18T07:30:59;14.45;;;7.50;;
32172;SDS011;18679;45.190;5.722;2023-02-18T07:34:01;14.60;;;6.50;;
32172;SDS011;18679;45.190;5.722;2023-02-18T07:41:24;24.25;;;5.75;;
32172;SDS011;18679;45.190;5.722;2023-02-18T07:44:25;14.45;;;6.15;;
32172;SDS011;18679;45.190;5.722;2023-02-18T07:47:26;12.93;;;6.32;;
32172;SDS011;18679;45.190;5.722;2023-02-18T07:50:27;17.38;;;6.78;;
32172;SDS011;18679;45.190;5.722;2023-02-18T07:53:34;16.02;;;6.70;;
32172;SDS011;18679;45.190;5.722;2023-02-18T07:56:36;21.05;;;6.65;;
32172;SDS011;18679;45.190;5.722;2023-02-18T07:59:37;12.35;;;5.68;;
32172;SDS011;18679;45.190;5.722;2023-02-18T08:02:38;21.42;;;6.03;;
32172;SDS011;18679;45.190;5.722;2023-02-18T08:05:39;16.08;;;6.18;;
32172;SDS011;18679;45.190;5.722;2023-02-18T08:08:40;15.18;;;5.93;;
32172;SDS011;18679;45.190;5.722;2023-02-18T08:11:41;17.75;;;6.43;;
32172;SDS011;18679;45.190;5.722;2023-02-18T08:14:43;13.93;;;5.63;;
32172;SDS011;18679;45.190;5.722;2023-02-18T08:17:45;18.42;;;6.40;;
32172;SDS011;18679;45.190;5.722;2023-02-18T08:20:46;12.68;;;5.22;;
32172;SDS011;18679;45.190;5.722;2023-02-18T08:23:48;13.32;;;5.47;;
32172;SDS011;18679;45.190;5.722;2023-02-18T08:26:49;12.55;;;5.15;;
32172;SDS011;18679;45.190;5.722;2023-02-18T08:29:50;19.23;;;6.63;;
32172;SDS011;18679;45.190;5.722;2023-02-18T08:32:51;25.70;;;6.07;;
32172;SDS011;18679;45.190;5.722;2023-02-18T08:35:53;8.75;;;5.20;;
32172;SDS011;18679;45.190;5.722;2023-02-18T08:38:56;12.25;;;5.63;;
32172;SDS011;18679;45.190;5.722;2023-02-18T08:41:59;12.45;;;6.22;;
32172;SDS011;18679;45.190;5.722;2023-02-18T08:45:00;13.70;;;5.95;;
32172;SDS011;18679;45.190;5.722;2023-02-18T08:48:01;21.50;;;5.85;;
32172;SDS011;18679;45.190;5.722;2023-02-18T08:51:12;14.50;;;5.80;;
32172;SDS011;18679;45.190;5.722;2023-02-18T08:54:15;15.15;;;6.15;;
32172;SDS011;18679;45.190;5.722;2023-02-18T08:57:17;18.75;;;7.03;;
32172;SDS011;18679;45.190;5.722;2023-02-18T09:00:18;18.00;;;5.78;;
32172;SDS011;18679;45.190;5.722;2023-02-18T09:03:19;10.00;;;5.07;;
32172;SDS011;18679;45.190;5.722;2023-02-18T09:06:20;12.18;;;6.35;;
32172;SDS011;18679;45.190;5.722;2023-02-18T09:09:22;18.17;;;5.80;;
32172;SDS011;18679;45.190;5.722;2023-02-18T09:12:23;10.60;;;4.97;;
32172;SDS011;18679;45.190;5.722;2023-02-18T09:15:24;13.45;;;5.10;;
32172;SDS011;18679;45.190;5.722;2023-02-18T09:18:25;9.13;;;5.07;;
32172;SDS011;18679;45.190;5.722;2023-02-18T09:21:27;7.55;;;4.30;;
32172;SDS011;18679;45.190;5.722;2023-02-18T09:24:28;10.82;;;4.68;;
32172;SDS011;18679;45.190;5.722;2023-02-18T09:27:30;12.35;;;4.57;;
32172;SDS011;18679;45.190;5.722;2023-02-18T09:30:31;11.25;;;5.28;;
32172;SDS011;18679;45.190;5.722;2023-02-18T09:33:34;12.18;;;4.95;;
32172;SDS011;18679;45.190;5.722;2023-02-18T09:36:37;8.98;;;3.72;;
32172;SDS011;18679;45.190;5.722;2023-02-18T09:39:38;17.38;;;4.70;;
32172;SDS011;18679;45.190;5.722;2023-02-18T09:42:39;14.63;;;5.03;;
32172;SDS011;18679;45.190;5.722;2023-02-18T09:45:41;12.60;;;5.05;;
32172;SDS011;18679;45.190;5.722;2023-02-18T09:48:42;12.15;;;4.70;;
32172;SDS011;18679;45.190;5.722;2023-02-18T09:51:46;9.10;;;4.28;;
32172;SDS011;18679;45.190;5.722;2023-02-18T09:54:47;19.10;;;5.90;;
32172;SDS011;18679;45.190;5.722;2023-02-18T09:57:50;11.05;;;5.00;;
32172;SDS011;18679;45.190;5.722;2023-02-18T10:01:26;11.63;;;4.85;;
32172;SDS011;18679;45.190;5.722;2023-02-18T10:04:39;14.85;;;5.20;;
32172;SDS011;18679;45.190;5.722;2023-02-18T10:07:42;11.73;;;4.75;;
32172;SDS011;18679;45.190;5.722;2023-02-18T10:10:45;11.38;;;5.78;;
32172;SDS011;18679;45.190;5.722;2023-02-18T10:13:47;12.77;;;5.03;;
32172;SDS011;18679;45.190;5.722;2023-02-18T10:16:48;13.48;;;6.32;;
32172;SDS011;18679;45.190;5.722;2023-02-18T10:19:52;16.65;;;6.30;;
32172;SDS011;18679;45.190;5.722;2023-02-18T10:22:56;17.77;;;6.10;;
32172;SDS011;18679;45.190;5.722;2023-02-18T10:26:01;11.85;;;4.65;;
32172;SDS011;18679;45.190;5.722;2023-02-18T10:29:12;12.65;;;4.82;;
32172;SDS011;18679;45.190;5.722;2023-02-18T10:35:30;13.73;;;5.28;;
32172;SDS011;18679;45.190;5.722;2023-02-18T10:38:44;16.55;;;5.10;;
32172;SDS011;18679;45.190;5.722;2023-02-18T10:42:09;12.93;;;5.10;;
32172;SDS011;18679;45.190;5.722;2023-02-18T10:45:44;11.10;;;5.25;;
32172;SDS011;18679;45.190;5.722;2023-02-18T10:52:01;17.67;;;6.63;;
32172;SDS011;18679;45.190;5.722;2023-02-18T10:55:11;18.67;;;4.45;;
32172;SDS011;18679;45.190;5.722;2023-02-18T11:01:35;11.70;;;4.70;;
32172;SDS011;18679;45.190;5.722;2023-02-18T11:04:37;13.98;;;4.95;;
32172;SDS011;18679;45.190;5.722;2023-02-18T11:07:40;12.38;;;4.90;;
32172;SDS011;18679;45.190;5.722;2023-02-18T11:10:49;15.93;;;5.50;;
32172;SDS011;18679;45.190;5.722;2023-02-18T11:13:52;10.27;;;4.80;;
32172;SDS011;18679;45.190;5.722;2023-02-18T11:16:54;11.18;;;4.32;;
32172;SDS011;18679;45.190;5.722;2023-02-18T11:23:30;23.45;;;6.45;;
32172;SDS011;18679;45.190;5.722;2023-02-18T11:26:44;15.02;;;4.70;;
32172;SDS011;18679;45.190;5.722;2023-02-18T11:29:47;14.40;;;5.07;;
32172;SDS011;18679;45.190;5.722;2023-02-18T11:32:52;12.15;;;4.25;;
32172;SDS011;18679;45.190;5.722;2023-02-18T11:36:04;8.55;;;4.13;;
32172;SDS011;18679;45.190;5.722;2023-02-18T11:39:29;12.95;;;4.63;;
32172;SDS011;18679;45.190;5.722;2023-02-18T11:42:31;16.58;;;4.85;;
32172;SDS011;18679;45.190;5.722;2023-02-18T11:45:33;11.68;;;4.78;;
32172;SDS011;18679;45.190;5.722;2023-02-18T11:48:34;10.75;;;5.10;;
32172;SDS011;18679;45.190;5.722;2023-02-18T11:51:35;13.77;;;5.38;;
32172;SDS011;18679;45.190;5.722;2023-02-18T11:54:40;10.27;;;4.38;;
32172;SDS011;18679;45.190;5.722;2023-02-18T11:57:42;9.65;;;4.75;;
32172;SDS011;18679;45.190;5.722;2023-02-18T12:01:05;17.95;;;4.72;;
32172;SDS011;18679;45.190;5.722;2023-02-18T12:04:14;12.18;;;5.43;;
32172;SDS011;18679;45.190;5.722;2023-02-18T12:07:24;9.50;;;4.80;;
32172;SDS011;18679;45.190;5.722;2023-02-18T12:13:49;14.98;;;4.78;;
32172;SDS011;18679;45.190;5.722;2023-02-18T12:48:19;9.27;;;2.92;;
32172;SDS011;18679;45.190;5.722;2023-02-18T12:51:55;6.60;;;3.90;;
32172;SDS011;18679;45.190;5.722;2023-02-18T13:15:17;2.28;;;1.35;;
32172;SDS011;18679;45.190;5.722;2023-02-18T13:18:34;7.65;;;1.70;;
32172;SDS011;18679;45.190;5.722;2023-02-18T13:22:00;3.97;;;1.77;;
32172;SDS011;18679;45.190;5.722;2023-02-18T13:25:04;8.70;;;2.28;;
32172;SDS011;18679;45.190;5.722;2023-02-18T13:31:54;6.22;;;2.00;;
32172;SDS011;18679;45.190;5.722;2023-02-18T13:41:37;3.72;;;1.80;;
32172;SDS011;18679;45.190;5.722;2023-02-18T13:47:54;3.17;;;1.73;;
32172;SDS011;18679;45.190;5.722;2023-02-18T13:51:03;2.75;;;1.52;;
32172;SDS011;18679;45.190;5.722;2023-02-18T13:57:12;3.08;;;1.75;;
32172;SDS011;18679;45.190;5.722;2023-02-18T14:00:22;2.92;;;1.23;;
32172;SDS011;18679;45.190;5.722;2023-02-18T14:03:35;4.10;;;1.45;;
32172;SDS011;18679;45.190;5.722;2023-02-18T14:07:15;3.05;;;1.45;;
32172;SDS011;18679;45.190;5.722;2023-02-18T14:10:26;3.70;;;1.52;;
32172;SDS011;18679;45.190;5.722;2023-02-18T14:26:24;4.93;;;1.48;;
32172;SDS011;18679;45.190;5.722;2023-02-18T14:29:29;2.20;;;1.20;;
32172;SDS011;18679;45.190;5.722;2023-02-18T14:32:31;8.07;;;1.67;;
32172;SDS011;18679;45.190;5.722;2023-02-18T14:38:40;4.13;;;1.60;;
32172;SDS011;18679;45.190;5.722;2023-02-18T14:45:12;1.63;;;1.20;;
32172;SDS011;18679;45.190;5.722;2023-02-18T14:55:25;3.28;;;1.33;;
32172;SDS011;18679;45.190;5.722;2023-02-18T14:58:34;2.85;;;1.42;;
32172;SDS011;18679;45.190;5.722;2023-02-18T15:01:37;2.80;;;1.67;;
32172;SDS011;18679;45.190;5.722;2023-02-18T15:04:39;4.38;;;1.48;;
32172;SDS011;18679;45.190;5.722;2023-02-18T15:07:53;7.70;;;1.20;;
32172;SDS011;18679;45.190;5.722;2023-02-18T15:11:04;4.10;;;1.30;;
32172;SDS011;18679;45.190;5.722;2023-02-18T15:14:15;3.20;;;1.58;;
32172;SDS011;18679;45.190;5.722;2023-02-18T15:17:22;3.08;;;1.45;;
32172;SDS011;18679;45.190;5.722;2023-02-18T15:20:30;2.55;;;1.42;;
32172;SDS011;18679;45.190;5.722;2023-02-18T15:23:37;2.20;;;1.27;;
32172;SDS011;18679;45.190;5.722;2023-02-18T15:26:44;3.15;;;1.15;;
32172;SDS011;18679;45.190;5.722;2023-02-18T15:32:58;1.63;;;1.25;;
32172;SDS011;18679;45.190;5.722;2023-02-18T15:36:04;2.70;;;1.30;;
32172;SDS011;18679;45.190;5.722;2023-02-18T15:39:10;2.78;;;1.30;;
32172;SDS011;18679;45.190;5.722;2023-02-18T15:45:30;2.63;;;1.23;;
32172;SDS011;18679;45.190;5.722;2023-02-18T15:48:44;3.88;;;1.40;;
32172;SDS011;18679;45.190;5.722;2023-02-18T15:51:46;1.20;;;1.08;;
32172;SDS011;18679;45.190;5.722;2023-02-18T15:54:49;2.05;;;1.45;;
32172;SDS011;18679;45.190;5.722;2023-02-18T15:57:50;2.65;;;1.33;;
32172;SDS011;18679;45.190;5.722;2023-02-18T16:00:55;4.97;;;1.77;;
32172;SDS011;18679;45.190;5.722;2023-02-18T16:04:06;4.85;;;1.73;;
32172;SDS011;18679;45.190;5.722;2023-02-18T16:07:24;1.90;;;1.50;;
32172;SDS011;18679;45.190;5.722;2023-02-18T16:13:36;1.67;;;1.50;;
32172;SDS011;18679;45.190;5.722;2023-02-18T16:16:56;2.45;;;1.70;;
32172;SDS011;18679;45.190;5.722;2023-02-18T16:20:23;5.38;;;1.60;;
32172;SDS011;18679;45.190;5.722;2023-02-18T16:23:26;3.33;;;1.40;;
32172;SDS011;18679;45.190;5.722;2023-02-18T16:29:41;4.65;;;1.40;;
32172;SDS011;18679;45.190;5.722;2023-02-18T16:32:43;4.50;;;1.88;;
32172;SDS011;18679;45.190;5.722;2023-02-18T16:35:44;4.22;;;1.27;;
32172;SDS011;18679;45.190;5.722;2023-02-18T16:38:45;2.13;;;1.38;;
32172;SDS011;18679;45.190;5.722;2023-02-18T16:41:48;3.03;;;1.23;;
32172;SDS011;18679;45.190;5.722;2023-02-18T16:44:49;3.60;;;1.40;;
32172;SDS011;18679;45.190;5.722;2023-02-18T16:47:51;4.18;;;1.30;;
32172;SDS011;18679;45.190;5.722;2023-02-18T16:50:52;3.83;;;1.40;;
32172;SDS011;18679;45.190;5.722;2023-02-18T16:53:54;1.70;;;1.10;;
32172;SDS011;18679;45.190;5.722;2023-02-18T16:56:55;2.20;;;1.45;;
32172;SDS011;18679;45.190;5.722;2023-02-18T16:59:56;2.05;;;1.38;;
32172;SDS011;18679;45.190;5.722;2023-02-18T17:02:58;3.55;;;1.15;;
32172;SDS011;18679;45.190;5.722;2023-02-18T17:06:00;3.90;;;1.02;;
32172;SDS011;18679;45.190;5.722;2023-02-18T17:09:01;2.78;;;1.20;;
32172;SDS011;18679;45.190;5.722;2023-02-18T17:12:06;7.40;;;1.45;;
32172;SDS011;18679;45.190;5.722;2023-02-18T17:15:30;1.80;;;1.20;;
32172;SDS011;18679;45.190;5.722;2023-02-18T17:18:36;3.17;;;0.82;;
32172;SDS011;18679;45.190;5.722;2023-02-18T17:21:37;3.33;;;1.15;;
32172;SDS011;18679;45.190;5.722;2023-02-18T17:24:38;1.55;;;1.00;;
32172;SDS011;18679;45.190;5.722;2023-02-18T17:27:39;2.75;;;1.20;;
32172;SDS011;18679;45.190;5.722;2023-02-18T17:30:40;2.33;;;1.13;;
32172;SDS011;18679;45.190;5.722;2023-02-18T17:33:42;3.78;;;1.63;;
32172;SDS011;18679;45.190;5.722;2023-02-18T17:36:45;3.15;;;1.40;;
32172;SDS011;18679;45.190;5.722;2023-02-18T17:39:46;2.13;;;1.20;;
32172;SDS011;18679;45.190;5.722;2023-02-18T17:42:47;4.57;;;2.38;;
32172;SDS011;18679;45.190;5.722;2023-02-18T17:45:50;3.35;;;1.35;;
32172;SDS011;18679;45.190;5.722;2023-02-18T17:48:52;2.15;;;1.52;;
32172;SDS011;18679;45.190;5.722;2023-02-18T17:51:53;8.55;;;1.73;;
32172;SDS011;18679;45.190;5.722;2023-02-18T17:54:54;4.40;;;1.58;;
32172;SDS011;18679;45.190;5.722;2023-02-18T17:57:56;1.27;;;1.15;;
32172;SDS011;18679;45.190;5.722;2023-02-18T18:00:58;3.95;;;2.03;;
32172;SDS011;18679;45.190;5.722;2023-02-18T18:04:05;5.70;;;1.70;;
32172;SDS011;18679;45.190;5.722;2023-02-18T18:07:15;4.32;;;1.50;;
32172;SDS011;18679;45.190;5.722;2023-02-18T18:10:17;3.20;;;1.50;;
32172;SDS011;18679;45.190;5.722;2023-02-18T18:13:22;7.60;;;1.70;;
32172;SDS011;18679;45.190;5.722;2023-02-18T18:16:25;6.30;;;2.45;;
32172;SDS011;18679;45.190;5.722;2023-02-18T18:19:26;4.32;;;1.73;;
32172;SDS011;18679;45.190;5.722;2023-02-18T18:22:29;5.65;;;2.13;;
32172;SDS011;18679;45.190;5.722;2023-02-18T18:25:38;8.45;;;2.92;;
32172;SDS011;18679;45.190;5.722;2023-02-18T18:28:47;3.60;;;2.20;;
32172;SDS011;18679;45.190;5.722;2023-02-18T18:31:50;4.88;;;2.70;;
32172;SDS011;18679;45.190;5.722;2023-02-18T18:34:51;4.95;;;2.25;;
32172;SDS011;18679;45.190;5.722;2023-02-18T18:37:53;5.85;;;2.38;;
32172;SDS011;18679;45.190;5.722;2023-02-18T18:40:55;3.33;;;1.67;;
32172;SDS011;18679;45.190;5.722;2023-02-18T18:43:56;5.35;;;2.63;;
32172;SDS011;18679;45.190;5.722;2023-02-18T18:46:57;5.63;;;2.47;;
32172;SDS011;18679;45.190;5.722;2023-02-18T18:49:58;7.13;;;2.70;;
32172;SDS011;18679;45.190;5.722;2023-02-18T18:52:59;4.72;;;2.30;;
32172;SDS011;18679;45.190;5.722;2023-02-18T18:56:05;6.47;;;2.90;;
32172;SDS011;18679;45.190;5.722;2023-02-18T18:59:07;6.85;;;2.42;;
32172;SDS011;18679;45.190;5.722;2023-02-18T19:02:15;4.25;;;1.92;;
32172;SDS011;18679;45.190;5.722;2023-02-18T19:08:29;4.95;;;1.95;;
32172;SDS011;18679;45.190;5.722;2023-02-18T19:11:31;5.20;;;1.95;;
32172;SDS011;18679;45.190;5.722;2023-02-18T19:14:32;7.60;;;2.70;;
32172;SDS011;18679;45.190;5.722;2023-02-18T19:17:37;6.90;;;2.63;;
32172;SDS011;18679;45.190;5.722;2023-02-18T19:20:37;5.28;;;3.28;;
32172;SDS011;18679;45.190;5.722;2023-02-18T19:23:39;7.38;;;3.35;;
32172;SDS011;18679;45.190;5.722;2023-02-18T19:26:40;9.10;;;3.03;;
32172;SDS011;18679;45.190;5.722;2023-02-18T19:29:41;4.95;;;2.45;;
32172;SDS011;18679;45.190;5.722;2023-02-18T19:32:43;6.57;;;3.60;;
32172;SDS011;18679;45.190;5.722;2023-02-18T19:35:45;11.70;;;4.70;;
32172;SDS011;18679;45.190;5.722;2023-02-18T19:38:46;15.63;;;6.20;;
32172;SDS011;18679;45.190;5.722;2023-02-18T19:41:47;14.63;;;5.63;;
32172;SDS011;18679;45.190;5.722;2023-02-18T19:44:48;13.75;;;6.07;;
32172;SDS011;18679;45.190;5.722;2023-02-18T19:47:52;18.98;;;6.03;;
32172;SDS011;18679;45.190;5.722;2023-02-18T19:50:54;15.27;;;6.05;;
32172;SDS011;18679;45.190;5.722;2023-02-18T19:53:55;8.40;;;4.80;;
32172;SDS011;18679;45.190;5.722;2023-02-18T19:56:57;12.43;;;5.32;;
32172;SDS011;18679;45.190;5.722;2023-02-18T19:59:59;17.63;;;6.22;;
32172;SDS011;18679;45.190;5.722;2023-02-18T20:03:00;18.00;;;7.65;;
32172;SDS011;18679;45.190;5.722;2023-02-18T20:06:01;16.67;;;5.85;;
32172;SDS011;18679;45.190;5.722;2023-02-18T20:09:02;17.55;;;5.85;;
32172;SDS011;18679;45.190;5.722;2023-02-18T20:12:04;18.65;;;5.68;;
32172;SDS011;18679;45.190;5.722;2023-02-18T20:15:06;21.52;;;7.22;;
32172;SDS011;18679;45.190;5.722;2023-02-18T20:18:07;9.57;;;4.82;;
32172;SDS011;18679;45.190;5.722;2023-02-18T20:21:09;10.13;;;5.65;;
32172;SDS011;18679;45.190;5.722;2023-02-18T20:24:11;17.10;;;6.05;;
32172;SDS011;18679;45.190;5.722;2023-02-18T20:27:12;15.80;;;5.35;;
32172;SDS011;18679;45.190;5.722;2023-02-18T20:30:13;16.33;;;5.68;;
32172;SDS011;18679;45.190;5.722;2023-02-18T20:33:15;11.88;;;5.00;;
32172;SDS011;18679;45.190;5.722;2023-02-18T20:36:15;11.15;;;5.07;;
32172;SDS011;18679;45.190;5.722;2023-02-18T20:39:17;19.75;;;7.00;;
32172;SDS011;18679;45.190;5.722;2023-02-18T20:42:19;12.90;;;5.80;;
32172;SDS011;18679;45.190;5.722;2023-02-18T20:45:21;13.18;;;6.05;;
32172;SDS011;18679;45.190;5.722;2023-02-18T20:48:22;15.48;;;7.97;;
32172;SDS011;18679;45.190;5.722;2023-02-18T20:51:23;14.30;;;5.95;;
32172;SDS011;18679;45.190;5.722;2023-02-18T20:54:24;21.67;;;7.00;;
32172;SDS011;18679;45.190;5.722;2023-02-18T20:57:25;19.65;;;5.55;;
32172;SDS011;18679;45.190;5.722;2023-02-18T21:00:27;11.15;;;6.07;;
32172;SDS011;18679;45.190;5.722;2023-02-18T21:03:28;18.25;;;7.20;;
32172;SDS011;18679;45.190;5.722;2023-02-18T21:06:29;19.77;;;7.07;;
32172;SDS011;18679;45.190;5.722;2023-02-18T21:09:30;13.05;;;6.38;;
32172;SDS011;18679;45.190;5.722;2023-02-18T21:12:31;14.55;;;6.22;;
32172;SDS011;18679;45.190;5.722;2023-02-18T21:15:34;18.20;;;5.10;;
32172;SDS011;18679;45.190;5.722;2023-02-18T21:18:36;11.50;;;5.80;;